Time;durP1;ratioP1;P1;durP2;ratioP2;P2;SDS_P1;SDS_P2;PMS_P1;PMS_P2;Temp;Humidity;BMP_temperature;BMP_pressure;BME280_temperature;BME280_humidity;BME280_pressure;Samples;Min_cycle;Max_cycle;Signal;HPM_P1;HPM_P2
2023/09/22 00:01:25;;;;;;;7.22;3.08;;;;;;;;;;5005211;28;99878;-75
2023/09/22 00:03:52;;;;;;;6.75;3.50;;;;;;;;;;5007000;28;98303;-75
2023/09/22 00:06:22;;;;;;;8.38;3.42;;;;;;;;;;5008600;28;99281;-74
2023/09/22 00:08:48;;;;;;;6.63;3.53;;;;;;;;;;5007245;28;98303;-75
2023/09/22 00:11:16;;;;;;;13.73;3.70;;;;;;;;;;5007217;28;98726;-75
2023/09/22 00:13:42;;;;;;;6.97;4.25;;;;;;;;;;5006799;28;100233;-74
2023/09/22 00:16:09;;;;;;;11.55;4.43;;;;;;;;;;5005654;28;98441;-75
2023/09/22 00:18:36;;;;;;;9.55;5.13;;;;;;;;;;5007208;28;98712;-74
2023/09/22 00:21:04;;;;;;;6.45;5.85;;;;;;;;;;5007393;28;98941;-73
2023/09/22 00:23:31;;;;;;;11.50;6.47;;;;;;;;;;5007400;28;99678;-73
2023/09/22 00:25:57;;;;;;;11.80;7.97;;;;;;;;;;5007717;28;99045;-75
2023/09/22 00:28:24;;;;;;;13.48;7.80;;;;;;;;;;5010060;28;99953;-74
2023/09/22 00:30:50;;;;;;;14.27;8.70;;;;;;;;;;5007456;28;99701;-75
2023/09/22 00:33:17;;;;;;;14.80;9.75;;;;;;;;;;5005647;28;99983;-74
2023/09/22 00:35:44;;;;;;;24.30;10.25;;;;;;;;;;5007268;28;98500;-74
2023/09/22 00:38:10;;;;;;;17.33;9.80;;;;;;;;;;5008494;28;98736;-74
2023/09/22 00:40:38;;;;;;;19.45;10.68;;;;;;;;;;5007265;28;99960;-75
2023/09/22 00:43:09;;;;;;;17.30;10.43;;;;;;;;;;5006858;28;98664;-75
2023/09/22 00:45:37;;;;;;;;;;;;;;;;;;5006357;28;100896;-75
2023/09/22 00:48:04;;;;;;;21.45;10.05;;;;;;;;;;5006613;28;128356;-76
2023/09/22 00:50:30;;;;;;;22.63;11.32;;;;;;;;;;5008416;28;98885;-74
2023/09/22 00:52:57;;;;;;;23.20;13.98;;;;;;;;;;5007475;28;98717;-75
2023/09/22 00:55:23;;;;;;;21.27;11.95;;;;;;;;;;5007721;28;98569;-74
2023/09/22 00:57:51;;;;;;;21.27;12.85;;;;;;;;;;5004212;28;98771;-74
2023/09/22 01:00:19;;;;;;;24.35;12.38;;;;;;;;;;5003076;28;99863;-74
2023/09/22 01:02:46;;;;;;;18.13;11.43;;;;;;;;;;5004738;28;98248;-74
2023/09/22 01:05:12;;;;;;;22.77;12.70;;;;;;;;;;5002891;28;99364;-76
2023/09/22 01:07:39;;;;;;;22.55;12.50;;;;;;;;;;5005039;28;98849;-76
2023/09/22 01:10:07;;;;;;;27.48;12.32;;;;;;;;;;5006888;28;98457;-74
2023/09/22 01:12:33;;;;;;;23.13;11.20;;;;;;;;;;5006628;28;99833;-75
2023/09/22 01:15:00;;;;;;;20.35;11.75;;;;;;;;;;4984107;28;100998;-75
2023/09/22 01:17:27;;;;;;;20.88;11.77;;;;;;;;;;4965354;28;98698;-75
2023/09/22 01:19:53;;;;;;;20.70;11.40;;;;;;;;;;4964108;28;100036;-74
2023/09/22 01:22:20;;;;;;;17.33;11.63;;;;;;;;;;4966868;28;98225;-76
2023/09/22 01:24:46;;;;;;;21.13;12.50;;;;;;;;;;4965442;28;99415;-75
2023/09/22 01:27:13;;;;;;;17.58;12.45;;;;;;;;;;4966569;28;99911;-75
2023/09/22 01:29:40;;;;;;;21.08;12.00;;;;;;;;;;4967931;28;98526;-75
2023/09/22 01:32:09;;;;;;;17.67;13.85;;;;;;;;;;4966826;28;98578;-74
2023/09/22 01:34:36;;;;;;;21.23;13.50;;;;;;;;;;4970622;28;99573;-74
2023/09/22 01:37:07;;;;;;;27.13;15.85;;;;;;;;;;4966060;28;99774;-75
2023/09/22 01:39:37;;;;;;;27.52;15.70;;;;;;;;;;4957252;28;100117;-74
2023/09/22 01:42:04;;;;;;;23.90;16.27;;;;;;;;;;4965424;28;98285;-75
2023/09/22 01:44:30;;;;;;;28.50;16.88;;;;;;;;;;4964455;28;100961;-74
2023/09/22 01:46:57;;;;;;;26.48;17.40;;;;;;;;;;4966739;28;98712;-75
2023/09/22 01:49:23;;;;;;;26.38;17.23;;;;;;;;;;4965780;28;98730;-74
2023/09/22 01:51:50;;;;;;;29.30;17.15;;;;;;;;;;4962884;28;101072;-74
2023/09/22 01:54:16;;;;;;;23.90;16.17;;;;;;;;;;4964788;28;100285;-75
2023/09/22 01:56:43;;;;;;;29.27;19.17;;;;;;;;;;4959812;28;98618;-74
2023/09/22 01:59:10;;;;;;;33.42;17.27;;;;;;;;;;4961412;28;101683;-75
2023/09/22 02:01:36;;;;;;;27.45;17.95;;;;;;;;;;4962048;28;98200;-74
2023/09/22 02:04:03;;;;;;;28.75;17.90;;;;;;;;;;4963193;28;99795;-74
2023/09/22 02:06:31;;;;;;;41.85;19.20;;;;;;;;;;4961633;28;102035;-75
2023/09/22 02:08:58;;;;;;;43.03;20.20;;;;;;;;;;4961108;28;98835;-74
2023/09/22 02:11:24;;;;;;;36.45;21.02;;;;;;;;;;4963924;28;99749;-75
2023/09/22 02:13:51;;;;;;;32.58;20.15;;;;;;;;;;4962632;28;101406;-75
2023/09/22 02:16:17;;;;;;;33.83;19.50;;;;;;;;;;5006371;28;98315;-75
2023/09/22 02:18:44;;;;;;;31.77;20.05;;;;;;;;;;5003540;28;98941;-76
2023/09/22 02:21:11;;;;;;;44.40;21.92;;;;;;;;;;5001161;28;99801;-74
2023/09/22 02:23:37;;;;;;;32.85;20.23;;;;;;;;;;5004114;28;98241;-75
2023/09/22 02:26:06;;;;;;;35.95;19.63;;;;;;;;;;5005157;28;98961;-74
2023/09/22 02:28:32;;;;;;;35.40;19.88;;;;;;;;;;5001391;28;98902;-75
2023/09/22 02:31:00;;;;;;;34.88;19.67;;;;;;;;;;5005758;28;99395;-74
2023/09/22 02:33:29;;;;;;;40.25;20.17;;;;;;;;;;5000941;28;99799;-74
2023/09/22 02:35:55;;;;;;;43.25;20.45;;;;;;;;;;5001206;28;99670;-74
2023/09/22 02:38:22;;;;;;;35.92;20.20;;;;;;;;;;5005477;28;100418;-74
2023/09/22 02:40:48;;;;;;;32.95;19.77;;;;;;;;;;5002079;28;98232;-75
2023/09/22 02:43:15;;;;;;;43.97;20.58;;;;;;;;;;5002282;28;101486;-75
2023/09/22 02:45:41;;;;;;;46.95;21.52;;;;;;;;;;5003496;28;99396;-74
2023/09/22 02:48:08;;;;;;;40.40;21.50;;;;;;;;;;5001441;28;98177;-75
2023/09/22 02:50:36;;;;;;;46.05;22.83;;;;;;;;;;5002376;28;101429;-75
2023/09/22 02:53:03;;;;;;;43.88;21.73;;;;;;;;;;5004102;28;101124;-75
2023/09/22 02:55:30;;;;;;;38.90;21.20;;;;;;;;;;5013306;28;98276;-75
2023/09/22 02:57:56;;;;;;;45.40;22.15;;;;;;;;;;4998758;28;100479;-74
2023/09/22 03:00:23;;;;;;;42.28;20.80;;;;;;;;;;5008651;28;99836;-74
2023/09/22 03:02:50;;;;;;;39.97;21.13;;;;;;;;;;5007477;28;99899;-75
2023/09/22 03:05:18;;;;;;;42.78;20.38;;;;;;;;;;5008452;28;99173;-74
2023/09/22 03:07:48;;;;;;;36.72;19.50;;;;;;;;;;5006515;28;98187;-75
2023/09/22 03:10:15;;;;;;;41.15;20.77;;;;;;;;;;5004897;28;100303;-74
2023/09/22 03:12:43;;;;;;;33.35;18.48;;;;;;;;;;5023047;27;99005;-74
2023/09/22 03:15:09;;;;;;;35.25;19.52;;;;;;;;;;5006220;28;98247;-75
2023/09/22 03:17:37;;;;;;;39.95;19.27;;;;;;;;;;5004809;28;98706;-74
2023/09/22 03:20:06;;;;;;;31.10;18.40;;;;;;;;;;5005065;28;100144;-75
2023/09/22 03:22:35;;;;;;;37.28;18.73;;;;;;;;;;5010783;28;98621;-75
2023/09/22 03:25:02;;;;;;;32.75;17.58;;;;;;;;;;5008165;28;98993;-75
2023/09/22 03:27:36;;;;;;;31.08;16.27;;;;;;;;;;5005556;28;98711;-74
2023/09/22 03:30:08;;;;;;;27.10;16.95;;;;;;;;;;5006850;28;99107;-75
2023/09/22 03:32:38;;;;;;;30.38;16.83;;;;;;;;;;5003938;28;100031;-73
2023/09/22 03:35:07;;;;;;;30.85;16.48;;;;;;;;;;5037951;27;98677;-75
2023/09/22 03:37:34;;;;;;;32.38;17.00;;;;;;;;;;5004291;28;98652;-74
2023/09/22 03:40:22;;;;;;;25.77;15.77;;;;;;;;;;5001326;28;101486;-75
2023/09/22 03:42:49;;;;;;;23.55;14.93;;;;;;;;;;5006720;28;99992;-74
2023/09/22 03:45:15;;;;;;;23.02;14.50;;;;;;;;;;5008798;28;98610;-74
2023/09/22 03:47:42;;;;;;;24.77;13.93;;;;;;;;;;5005561;28;98554;-75
2023/09/22 03:50:09;;;;;;;28.77;13.77;;;;;;;;;;5005299;28;99970;-75
2023/09/22 03:52:36;;;;;;;23.77;13.98;;;;;;;;;;5005332;28;102203;-74
2023/09/22 03:55:03;;;;;;;30.48;13.27;;;;;;;;;;5007295;28;99618;-76
2023/09/22 03:57:30;;;;;;;18.90;11.77;;;;;;;;;;5006164;28;101073;-75
2023/09/22 03:59:56;;;;;;;20.17;11.95;;;;;;;;;;5006138;28;98734;-74
2023/09/22 04:02:23;;;;;;;22.85;11.77;;;;;;;;;;5004943;28;98318;-75
2023/09/22 04:04:50;;;;;;;23.35;11.85;;;;;;;;;;5010717;28;99313;-74
2023/09/22 04:07:17;;;;;;;21.10;12.20;;;;;;;;;;5006813;28;98574;-76
2023/09/22 04:09:44;;;;;;;23.02;11.68;;;;;;;;;;5007435;28;99466;-74
2023/09/22 04:12:12;;;;;;;23.35;12.32;;;;;;;;;;5004062;28;101624;-76
2023/09/22 04:14:38;;;;;;;21.35;11.70;;;;;;;;;;5003901;28;99790;-74
2023/09/22 04:17:09;;;;;;;21.60;11.35;;;;;;;;;;5005030;28;99233;-74
2023/09/22 04:19:37;;;;;;;18.60;11.95;;;;;;;;;;5006568;28;100246;-75
2023/09/22 04:22:06;;;;;;;21.05;12.10;;;;;;;;;;5005660;28;98524;-74
2023/09/22 04:24:32;;;;;;;24.42;11.73;;;;;;;;;;5007835;28;99394;-76
2023/09/22 04:27:07;;;;;;;20.90;12.18;;;;;;;;;;5010867;28;99965;-74
2023/09/22 04:29:36;;;;;;;20.05;10.90;;;;;;;;;;5006173;28;100416;-75
2023/09/22 04:32:04;;;;;;;19.33;11.02;;;;;;;;;;5006411;28;99957;-75
2023/09/22 04:34:32;;;;;;;20.55;10.15;;;;;;;;;;5007050;28;99225;-75
2023/09/22 04:36:59;;;;;;;22.63;11.65;;;;;;;;;;5007263;28;99536;-75
2023/09/22 04:39:26;;;;;;;14.13;9.73;;;;;;;;;;4999121;28;100023;-74
2023/09/22 04:41:53;;;;;;;18.05;10.95;;;;;;;;;;5006894;28;99862;-75
2023/09/22 04:44:20;;;;;;;15.90;10.02;;;;;;;;;;5007344;28;99377;-74
2023/09/22 04:46:46;;;;;;;24.10;10.60;;;;;;;;;;5007558;28;99005;-75
2023/09/22 04:49:13;;;;;;;21.42;10.55;;;;;;;;;;5010209;28;98271;-74
2023/09/22 04:51:40;;;;;;;18.33;9.38;;;;;;;;;;5007337;28;99915;-75
2023/09/22 04:54:06;;;;;;;20.05;10.18;;;;;;;;;;5009131;28;98059;-75
2023/09/22 04:56:33;;;;;;;22.15;11.80;;;;;;;;;;5005673;28;99717;-76
2023/09/22 04:59:00;;;;;;;17.83;10.40;;;;;;;;;;5007492;28;99126;-75
2023/09/22 05:01:30;;;;;;;17.77;10.15;;;;;;;;;;5006425;28;99704;-75
2023/09/22 05:03:57;;;;;;;13.15;9.27;;;;;;;;;;5003425;28;98878;-73
2023/09/22 05:06:23;;;;;;;21.13;10.23;;;;;;;;;;5005983;28;98920;-74
2023/09/22 05:08:50;;;;;;;14.10;9.30;;;;;;;;;;5005672;28;99293;-76
2023/09/22 05:11:17;;;;;;;18.58;9.43;;;;;;;;;;5007913;28;99484;-75
2023/09/22 05:13:44;;;;;;;18.02;9.90;;;;;;;;;;5005526;28;98317;-76
2023/09/22 05:16:13;;;;;;;21.25;9.45;;;;;;;;;;5005897;28;99438;-75
2023/09/22 05:18:39;;;;;;;22.95;9.82;;;;;;;;;;5005543;28;99074;-74
2023/09/22 05:21:09;;;;;;;15.35;9.52;;;;;;;;;;5005028;28;99042;-74
2023/09/22 05:23:36;;;;;;;15.55;9.05;;;;;;;;;;5004439;28;99540;-74
2023/09/22 05:26:09;;;;;;;15.30;8.93;;;;;;;;;;5005756;28;99960;-73
2023/09/22 05:28:36;;;;;;;20.58;9.80;;;;;;;;;;5006130;28;98268;-76
2023/09/22 05:31:06;;;;;;;21.15;9.93;;;;;;;;;;5002832;28;98573;-74
2023/09/22 05:33:39;;;;;;;14.10;9.30;;;;;;;;;;5007290;28;99101;-74
2023/09/22 05:36:06;;;;;;;13.45;8.52;;;;;;;;;;5004689;28;99835;-76
2023/09/22 05:38:32;;;;;;;14.77;9.27;;;;;;;;;;5003981;28;100102;-74
2023/09/22 05:40:59;;;;;;;12.70;8.23;;;;;;;;;;5004212;28;98279;-75
2023/09/22 05:43:25;;;;;;;13.90;9.27;;;;;;;;;;5005835;28;100550;-74
2023/09/22 05:45:53;;;;;;;15.23;8.65;;;;;;;;;;5005565;28;99993;-75
2023/09/22 05:48:21;;;;;;;15.85;8.65;;;;;;;;;;5005215;28;98228;-77
2023/09/22 05:50:55;;;;;;;12.60;8.98;;;;;;;;;;5004776;28;99834;-82
2023/09/22 05:53:21;;;;;;;17.65;9.02;;;;;;;;;;5003847;28;98919;-78
2023/09/22 05:55:48;;;;;;;17.05;8.88;;;;;;;;;;5003593;28;98239;-75
2023/09/22 05:58:15;;;;;;;14.98;8.05;;;;;;;;;;5005031;28;100023;-74
2023/09/22 06:00:44;;;;;;;9.63;7.43;;;;;;;;;;4998033;28;98278;-75
2023/09/22 06:03:12;;;;;;;17.05;8.48;;;;;;;;;;5004418;28;99336;-77
2023/09/22 06:05:39;;;;;;;11.05;5.70;;;;;;;;;;5003375;28;99992;-75
2023/09/22 06:08:05;;;;;;;9.10;5.07;;;;;;;;;;5004364;28;98827;-73
2023/09/22 06:10:33;;;;;;;7.05;6.35;;;;;;;;;;5005845;28;99364;-75
2023/09/22 06:13:00;;;;;;;10.38;7.22;;;;;;;;;;5005033;28;99443;-73
2023/09/22 06:15:26;;;;;;;8.52;5.75;;;;;;;;;;5008188;28;98567;-74
2023/09/22 06:17:53;;;;;;;8.18;5.00;;;;;;;;;;5006030;28;100331;-76
2023/09/22 06:20:20;;;;;;;7.18;5.45;;;;;;;;;;5004986;28;98207;-78
2023/09/22 06:22:47;;;;;;;6.63;5.00;;;;;;;;;;5006087;28;99706;-74
2023/09/22 06:25:14;;;;;;;8.88;5.53;;;;;;;;;;5001410;28;100149;-75
2023/09/22 06:27:43;;;;;;;6.20;4.50;;;;;;;;;;5002777;28;98536;-74
2023/09/22 06:30:11;;;;;;;4.38;3.80;;;;;;;;;;5002945;28;99580;-74
2023/09/22 06:32:42;;;;;;;9.02;4.05;;;;;;;;;;5003332;28;100045;-75
2023/09/22 06:35:10;;;;;;;7.07;4.25;;;;;;;;;;5006499;27;98330;-74
2023/09/22 06:37:37;;;;;;;6.72;4.03;;;;;;;;;;5006410;28;100073;-75
2023/09/22 06:40:06;;;;;;;4.93;4.43;;;;;;;;;;5010553;28;99564;-77
2023/09/22 06:42:32;;;;;;;12.63;4.40;;;;;;;;;;5013165;28;99478;-75
2023/09/22 06:44:59;;;;;;;7.10;3.42;;;;;;;;;;5009616;28;100177;-75
2023/09/22 06:47:25;;;;;;;5.97;3.38;;;;;;;;;;5009309;28;98615;-76
2023/09/22 06:49:52;;;;;;;7.93;4.00;;;;;;;;;;5008573;28;99843;-74
2023/09/22 06:52:19;;;;;;;5.25;3.28;;;;;;;;;;5003512;28;99947;-74
2023/09/22 06:54:46;;;;;;;3.83;3.08;;;;;;;;;;5003117;28;98884;-76
2023/09/22 06:57:12;;;;;;;4.32;2.63;;;;;;;;;;5004287;28;99326;-75
2023/09/22 06:59:40;;;;;;;5.40;3.08;;;;;;;;;;5003655;28;99937;-76
2023/09/22 07:02:07;;;;;;;3.78;2.38;;;;;;;;;;5005678;28;99704;-73
2023/09/22 07:04:33;;;;;;;7.32;2.50;;;;;;;;;;5004266;28;100202;-75
2023/09/22 07:07:01;;;;;;;2.88;2.53;;;;;;;;;;5004302;28;100270;-75
2023/09/22 07:09:27;;;;;;;4.20;2.30;;;;;;;;;;4996468;28;99689;-74
2023/09/22 07:11:54;;;;;;;4.90;2.40;;;;;;;;;;4999753;28;99846;-76
2023/09/22 07:14:20;;;;;;;3.63;2.60;;;;;;;;;;5001335;28;98600;-73
2023/09/22 07:16:48;;;;;;;5.43;2.83;;;;;;;;;;4997228;28;98967;-74
2023/09/22 07:19:15;;;;;;;3.10;2.80;;;;;;;;;;4999707;28;98932;-75
2023/09/22 07:21:42;;;;;;;5.18;2.70;;;;;;;;;;5001852;28;98746;-74
2023/09/22 07:24:09;;;;;;;6.88;2.55;;;;;;;;;;5002753;28;99347;-74
2023/09/22 07:26:35;;;;;;;4.40;2.40;;;;;;;;;;4996415;28;100607;-74
2023/09/22 07:29:02;;;;;;;2.88;2.50;;;;;;;;;;5000417;28;99814;-75
2023/09/22 07:31:30;;;;;;;2.50;1.85;;;;;;;;;;5003436;28;99953;-74
2023/09/22 07:33:58;;;;;;;4.45;2.40;;;;;;;;;;5008274;28;98326;-75
2023/09/22 07:36:26;;;;;;;5.53;2.17;;;;;;;;;;5010050;28;99729;-73
2023/09/22 07:38:53;;;;;;;5.65;2.40;;;;;;;;;;5010773;28;99585;-73
2023/09/22 07:41:20;;;;;;;7.18;2.30;;;;;;;;;;5010080;28;98193;-73
2023/09/22 07:43:46;;;;;;;2.97;2.17;;;;;;;;;;5012187;28;99876;-73
2023/09/22 07:46:12;;;;;;;5.28;2.42;;;;;;;;;;5008095;28;98365;-73
2023/09/22 07:48:39;;;;;;;2.35;2.15;;;;;;;;;;5008379;28;99344;-74
2023/09/22 07:51:06;;;;;;;4.65;2.10;;;;;;;;;;5008364;28;100142;-72
2023/09/22 07:53:33;;;;;;;1.70;1.63;;;;;;;;;;5006578;28;98414;-74
2023/09/22 07:55:59;;;;;;;1.98;1.65;;;;;;;;;;5008475;28;99571;-72
2023/09/22 07:58:27;;;;;;;2.15;1.58;;;;;;;;;;5007371;28;99951;-72
2023/09/22 08:00:53;;;;;;;3.38;1.83;;;;;;;;;;5008289;28;98291;-73
2023/09/22 08:03:20;;;;;;;2.22;1.80;;;;;;;;;;5007958;28;99961;-73
2023/09/22 08:05:48;;;;;;;1.92;1.75;;;;;;;;;;5002454;28;98672;-75
2023/09/22 08:08:16;;;;;;;3.83;1.85;;;;;;;;;;5008097;28;98154;-73
2023/09/22 08:10:43;;;;;;;1.55;1.45;;;;;;;;;;5007871;28;99022;-73
2023/09/22 08:13:10;;;;;;;1.92;1.50;;;;;;;;;;5007396;28;99490;-75
2023/09/22 08:15:39;;;;;;;1.27;1.17;;;;;;;;;;5007571;28;99546;-74
2023/09/22 08:18:06;;;;;;;2.42;1.50;;;;;;;;;;5007210;28;99930;-74
2023/09/22 08:20:34;;;;;;;1.27;1.20;;;;;;;;;;5006717;28;100018;-75
2023/09/22 08:23:01;;;;;;;3.58;1.85;;;;;;;;;;5008084;28;99320;-74
2023/09/22 08:25:27;;;;;;;3.25;1.58;;;;;;;;;;5010937;28;98387;-73
2023/09/22 08:27:56;;;;;;;1.60;1.50;;;;;;;;;;5006736;28;98450;-74
2023/09/22 08:30:23;;;;;;;2.05;1.60;;;;;;;;;;5007375;28;99265;-75
2023/09/22 08:32:50;;;;;;;2.35;1.50;;;;;;;;;;5007600;28;98098;-74
2023/09/22 08:35:17;;;;;;;1.83;1.73;;;;;;;;;;5007976;28;99814;-73
2023/09/22 08:37:44;;;;;;;2.97;1.40;;;;;;;;;;5004645;27;99578;-75
2023/09/22 08:40:14;;;;;;;1.52;1.42;;;;;;;;;;5007248;28;98236;-76
2023/09/22 08:42:45;;;;;;;1.40;1.40;;;;;;;;;;5005906;28;99619;-75
2023/09/22 08:45:12;;;;;;;3.03;1.52;;;;;;;;;;5000750;28;99007;-74
2023/09/22 08:47:39;;;;;;;3.15;1.70;;;;;;;;;;5009824;28;98247;-75
2023/09/22 08:50:11;;;;;;;5.80;1.52;;;;;;;;;;5007435;28;100186;-74
2023/09/22 08:52:39;;;;;;;1.70;1.60;;;;;;;;;;5007948;28;98272;-73
2023/09/22 08:55:08;;;;;;;3.55;1.67;;;;;;;;;;5006868;28;100081;-75
2023/09/22 08:57:35;;;;;;;1.40;1.30;;;;;;;;;;5006822;28;100087;-73
2023/09/22 09:00:10;;;;;;;1.92;1.30;;;;;;;;;;5006923;28;98883;-73
2023/09/22 09:02:37;;;;;;;1.60;1.50;;;;;;;;;;5006701;28;99452;-74
2023/09/22 09:05:24;;;;;;;1.38;1.27;;;;;;;;;;5006923;28;100310;-74
2023/09/22 09:07:51;;;;;;;2.05;1.38;;;;;;;;;;5006322;28;98284;-74
2023/09/22 09:10:24;;;;;;;2.53;1.45;;;;;;;;;;5000853;28;99710;-74
2023/09/22 09:12:51;;;;;;;1.13;1.13;;;;;;;;;;5007155;28;98392;-73
2023/09/22 09:15:18;;;;;;;3.38;1.58;;;;;;;;;;5006488;28;99723;-74
2023/09/22 09:17:46;;;;;;;1.50;1.35;;;;;;;;;;5006199;28;100094;-74
2023/09/22 09:20:14;;;;;;;1.27;1.25;;;;;;;;;;5006810;28;98252;-74
2023/09/22 09:22:40;;;;;;;1.00;1.00;;;;;;;;;;5006897;28;98734;-73
2023/09/22 09:25:09;;;;;;;3.65;1.55;;;;;;;;;;5006586;28;100945;-73
2023/09/22 09:27:36;;;;;;;1.45;1.33;;;;;;;;;;5007107;28;98276;-74
2023/09/22 09:30:15;;;;;;;1.10;1.10;;;;;;;;;;5006311;28;99537;-75
2023/09/22 09:32:43;;;;;;;1.30;1.20;;;;;;;;;;5003204;28;99063;-74
2023/09/22 09:35:11;;;;;;;1.25;1.08;;;;;;;;;;5006806;28;99556;-73
2023/09/22 09:37:40;;;;;;;2.15;1.25;;;;;;;;;;5005871;28;99844;-76
2023/09/22 09:40:10;;;;;;;1.15;1.15;;;;;;;;;;5006734;28;98348;-74
2023/09/22 09:42:40;;;;;;;1.05;1.02;;;;;;;;;;4999218;28;100361;-74
2023/09/22 09:45:07;;;;;;;1.08;1.08;;;;;;;;;;5006061;28;100622;-75
2023/09/22 09:47:35;;;;;;;2.88;1.25;;;;;;;;;;5005981;28;99823;-75
2023/09/22 09:50:04;;;;;;;1.23;1.13;;;;;;;;;;5008808;28;98594;-75
2023/09/22 09:52:42;;;;;;;1.02;1.02;;;;;;;;;;5007640;28;100708;-75
2023/09/22 09:55:11;;;;;;;1.40;1.30;;;;;;;;;;5011225;28;98106;-75
2023/09/22 09:57:39;;;;;;;1.30;1.10;;;;;;;;;;5005459;28;99856;-74
2023/09/22 10:00:13;;;;;;;1.73;1.63;;;;;;;;;;5005569;28;98270;-74
2023/09/22 10:02:41;;;;;;;1.15;1.13;;;;;;;;;;5006539;28;99858;-74
2023/09/22 10:05:10;;;;;;;1.35;1.17;;;;;;;;;;5005696;28;99802;-73
2023/09/22 10:07:38;;;;;;;3.25;1.42;;;;;;;;;;5006203;28;98340;-75
2023/09/22 10:10:05;;;;;;;1.10;1.10;;;;;;;;;;5006359;28;98713;-75
2023/09/22 10:12:32;;;;;;;6.50;1.55;;;;;;;;;;5007692;28;99705;-73
2023/09/22 10:15:04;;;;;;;2.70;1.10;;;;;;;;;;5013359;28;98150;-75
2023/09/22 10:17:31;;;;;;;1.17;1.17;;;;;;;;;;5008117;28;99040;-73
2023/09/22 10:20:10;;;;;;;2.13;1.10;;;;;;;;;;5008756;28;98342;-74
2023/09/22 10:22:37;;;;;;;1.15;1.10;;;;;;;;;;5008966;28;100338;-75
2023/09/22 10:25:12;;;;;;;1.05;1.02;;;;;;;;;;5009033;28;98898;-74
2023/09/22 10:27:53;;;;;;;4.15;1.23;;;;;;;;;;5008868;28;98327;-76
2023/09/22 10:30:43;;;;;;;1.27;1.17;;;;;;;;;;5010545;28;98430;-73
2023/09/22 10:33:32;;;;;;;1.02;0.90;;;;;;;;;;5010985;28;99069;-74
2023/09/22 10:36:00;;;;;;;1.50;1.20;;;;;;;;;;5002556;28;98266;-75
2023/09/22 10:38:27;;;;;;;1.20;1.10;;;;;;;;;;5004974;28;98812;-74
2023/09/22 10:41:00;;;;;;;2.83;1.52;;;;;;;;;;5009002;28;98358;-75
2023/09/22 10:43:26;;;;;;;;;;;;;;;;;;5009957;28;99835;-72
2023/09/22 10:45:53;;;;;;;2.80;1.20;;;;;;;;;;5009029;28;107628;-73
2023/09/22 10:48:20;;;;;;;3.60;1.25;;;;;;;;;;5007626;28;98263;-73
2023/09/22 10:50:50;;;;;;;0.90;0.90;;;;;;;;;;5009376;28;99388;-73
2023/09/22 10:53:16;;;;;;;7.18;1.20;;;;;;;;;;5009085;28;100118;-73
2023/09/22 10:55:44;;;;;;;1.23;1.00;;;;;;;;;;5008892;28;98552;-74
2023/09/22 10:58:11;;;;;;;1.10;1.02;;;;;;;;;;5005271;28;99637;-74
2023/09/22 11:00:39;;;;;;;0.80;0.80;;;;;;;;;;5012427;28;100220;-74
2023/09/22 11:03:08;;;;;;;2.70;1.30;;;;;;;;;;5008310;28;98578;-73
2023/09/22 11:05:39;;;;;;;2.78;1.08;;;;;;;;;;5008897;28;100154;-75
2023/09/22 11:08:16;;;;;;;0.75;0.75;;;;;;;;;;5009416;28;98753;-75
2023/09/22 11:10:46;;;;;;;3.03;0.82;;;;;;;;;;5008278;28;99937;-74
2023/09/22 11:13:14;;;;;;;1.63;0.90;;;;;;;;;;5007199;28;98859;-75
2023/09/22 11:15:50;;;;;;;3.28;1.20;;;;;;;;;;5007121;28;98205;-73
2023/09/22 11:18:20;;;;;;;1.15;0.85;;;;;;;;;;5007964;28;98528;-73
2023/09/22 11:20:48;;;;;;;1.10;0.98;;;;;;;;;;5007962;28;98751;-74
2023/09/22 11:23:15;;;;;;;0.70;0.70;;;;;;;;;;4991326;28;98409;-73
2023/09/22 11:25:52;;;;;;;3.08;1.00;;;;;;;;;;4989236;28;101651;-74
2023/09/22 11:28:18;;;;;;;1.25;1.10;;;;;;;;;;4989812;28;98242;-75
2023/09/22 11:30:46;;;;;;;3.90;0.95;;;;;;;;;;4995392;28;98635;-75
2023/09/22 11:33:15;;;;;;;3.72;1.63;;;;;;;;;;5010507;28;100339;-74
2023/09/22 11:35:42;;;;;;;3.25;1.08;;;;;;;;;;5008183;28;98326;-74
2023/09/22 11:38:20;;;;;;;1.60;0.70;;;;;;;;;;5006797;28;99047;-73
2023/09/22 11:40:48;;;;;;;1.35;0.80;;;;;;;;;;5008567;28;100086;-74
2023/09/22 11:43:15;;;;;;;1.00;0.85;;;;;;;;;;5008570;28;98308;-74
2023/09/22 11:45:42;;;;;;;0.85;0.70;;;;;;;;;;5011350;28;99510;-75
2023/09/22 11:48:08;;;;;;;2.47;0.57;;;;;;;;;;5008317;28;99305;-74
2023/09/22 11:50:35;;;;;;;0.55;0.55;;;;;;;;;;5007715;28;100066;-74
2023/09/22 11:53:09;;;;;;;1.15;0.80;;;;;;;;;;5008282;28;100002;-74
2023/09/22 11:55:36;;;;;;;0.73;0.73;;;;;;;;;;5007150;28;98240;-74
2023/09/22 11:58:04;;;;;;;6.53;0.85;;;;;;;;;;5007681;28;99315;-75
2023/09/22 12:00:31;;;;;;;0.55;0.55;;;;;;;;;;5007877;28;99321;-74
2023/09/22 12:02:58;;;;;;;2.45;0.85;;;;;;;;;;5007348;28;98339;-74
2023/09/22 12:05:24;;;;;;;2.33;0.80;;;;;;;;;;5007898;28;99023;-75
2023/09/22 12:07:53;;;;;;;1.05;0.70;;;;;;;;;;5011139;28;98995;-75
2023/09/22 12:10:21;;;;;;;1.45;0.73;;;;;;;;;;5007522;28;98595;-74
2023/09/22 12:12:48;;;;;;;1.70;0.82;;;;;;;;;;5007181;28;99601;-73
2023/09/22 12:15:14;;;;;;;1.40;0.57;;;;;;;;;;5007497;28;98109;-74
2023/09/22 12:17:41;;;;;;;3.38;0.77;;;;;;;;;;5008059;28;99439;-75
2023/09/22 12:20:08;;;;;;;2.38;0.60;;;;;;;;;;5007379;28;99881;-74
2023/09/22 12:22:34;;;;;;;1.27;0.85;;;;;;;;;;5007863;28;98323;-75
2023/09/22 12:25:01;;;;;;;0.47;0.47;;;;;;;;;;5008171;28;98479;-74
2023/09/22 12:27:29;;;;;;;7.60;2.25;;;;;;;;;;5012335;28;100476;-75
2023/09/22 12:29:55;;;;;;;0.88;0.60;;;;;;;;;;5010020;28;101138;-76
2023/09/22 12:32:22;;;;;;;2.42;0.80;;;;;;;;;;5007935;28;99932;-74
2023/09/22 12:34:50;;;;;;;0.90;0.90;;;;;;;;;;5006342;28;98303;-74
2023/09/22 12:37:16;;;;;;;2.05;1.58;;;;;;;;;;5004626;28;99730;-74
2023/09/22 12:39:43;;;;;;;4.38;0.75;;;;;;;;;;5003918;28;100089;-73
2023/09/22 12:42:09;;;;;;;2.45;0.88;;;;;;;;;;5007502;28;98340;-74
2023/09/22 12:44:37;;;;;;;1.27;0.70;;;;;;;;;;5007919;28;100437;-74
2023/09/22 12:47:04;;;;;;;0.98;0.90;;;;;;;;;;5000754;28;99282;-75
2023/09/22 12:49:33;;;;;;;1.17;0.80;;;;;;;;;;5010734;28;98256;-75
2023/09/22 12:52:01;;;;;;;4.20;1.10;;;;;;;;;;5006616;28;101225;-75
2023/09/22 12:54:30;;;;;;;2.40;0.90;;;;;;;;;;4998622;28;98473;-75
2023/09/22 12:56:57;;;;;;;1.10;0.80;;;;;;;;;;5007477;28;99976;-73
2023/09/22 12:59:24;;;;;;;1.70;0.90;;;;;;;;;;5006788;28;99986;-74
2023/09/22 13:01:50;;;;;;;1.02;0.95;;;;;;;;;;5006373;28;98276;-73
2023/09/22 13:04:17;;;;;;;2.58;0.85;;;;;;;;;;5006431;28;98422;-74
2023/09/22 13:06:45;;;;;;;1.00;0.70;;;;;;;;;;5007130;28;100076;-74
2023/09/22 13:09:11;;;;;;;0.77;0.77;;;;;;;;;;5005971;28;98907;-74
2023/09/22 13:11:38;;;;;;;2.00;1.00;;;;;;;;;;5010277;28;98607;-75
2023/09/22 13:14:05;;;;;;;3.65;1.00;;;;;;;;;;5007304;28;98436;-73
2023/09/22 13:16:32;;;;;;;4.32;0.80;;;;;;;;;;5005329;28;99449;-75
2023/09/22 13:18:59;;;;;;;2.67;1.00;;;;;;;;;;5007322;28;101151;-73
2023/09/22 13:21:25;;;;;;;1.63;0.70;;;;;;;;;;5006916;28;98490;-74
2023/09/22 13:23:51;;;;;;;1.65;0.80;;;;;;;;;;5007480;28;99438;-74
2023/09/22 13:26:19;;;;;;;2.28;1.00;;;;;;;;;;5006894;28;98865;-74
2023/09/22 13:28:46;;;;;;;1.63;0.80;;;;;;;;;;5000007;28;98236;-74
2023/09/22 13:31:15;;;;;;;1.95;1.02;;;;;;;;;;5005879;28;99799;-74
2023/09/22 13:33:45;;;;;;;1.90;0.90;;;;;;;;;;5009366;28;99018;-73
2023/09/22 13:36:19;;;;;;;1.65;0.90;;;;;;;;;;5006050;28;99887;-73
2023/09/22 13:38:52;;;;;;;0.85;0.85;;;;;;;;;;5005456;28;99969;-73
2023/09/22 13:41:20;;;;;;;4.88;1.60;;;;;;;;;;5006062;28;98798;-74
2023/09/22 13:43:49;;;;;;;1.15;1.05;;;;;;;;;;5006037;28;98688;-74
2023/09/22 13:46:16;;;;;;;1.33;0.85;;;;;;;;;;5005922;28;99915;-75
2023/09/22 13:48:44;;;;;;;1.17;0.80;;;;;;;;;;5006825;28;98225;-74
2023/09/22 13:51:10;;;;;;;1.08;0.90;;;;;;;;;;5005549;28;98547;-75
2023/09/22 13:53:37;;;;;;;7.78;1.20;;;;;;;;;;5006499;28;99143;-74
2023/09/22 13:56:04;;;;;;;4.03;1.05;;;;;;;;;;5010028;28;98196;-75
2023/09/22 13:58:32;;;;;;;0.98;0.60;;;;;;;;;;5005837;28;101764;-74
2023/09/22 14:01:08;;;;;;;2.10;0.80;;;;;;;;;;5006527;28;98284;-75
2023/09/22 14:03:35;;;;;;;2.38;1.02;;;;;;;;;;5006762;28;98791;-75
2023/09/22 14:06:01;;;;;;;8.35;0.82;;;;;;;;;;5005387;28;99005;-73
2023/09/22 14:08:28;;;;;;;0.75;0.70;;;;;;;;;;5006620;28;98195;-74
2023/09/22 14:10:54;;;;;;;7.15;0.80;;;;;;;;;;5007521;28;99991;-75
2023/09/22 14:13:21;;;;;;;0.73;0.70;;;;;;;;;;5005673;28;99041;-75
2023/09/22 14:15:48;;;;;;;0.88;0.82;;;;;;;;;;5006314;28;99758;-74
2023/09/22 14:18:14;;;;;;;2.85;0.90;;;;;;;;;;5008159;28;99537;-74
2023/09/22 14:20:41;;;;;;;1.98;1.00;;;;;;;;;;5006409;28;98841;-74
2023/09/22 14:23:08;;;;;;;0.95;0.60;;;;;;;;;;5006501;28;99368;-75
2023/09/22 14:25:35;;;;;;;2.88;0.90;;;;;;;;;;5005684;28;100567;-74
2023/09/22 14:28:03;;;;;;;2.83;0.90;;;;;;;;;;5006039;28;98275;-73
2023/09/22 14:30:29;;;;;;;3.78;0.90;;;;;;;;;;5005514;28;98479;-74
2023/09/22 14:32:59;;;;;;;1.10;0.98;;;;;;;;;;5005102;28;100282;-74
2023/09/22 14:35:29;;;;;;;0.80;0.68;;;;;;;;;;5005413;28;98192;-74